createdAt,value
2023-02-21T00:26:07.984Z,1.80
2023-02-21T00:31:07.889Z,1.78
2023-02-21T00:32:07.837Z,1.90
2023-02-21T00:33:07.885Z,1.58
2023-02-21T00:34:07.811Z,1.63
2023-02-21T00:35:07.767Z,1.51
2023-02-21T00:36:07.747Z,1.40
2023-02-21T00:37:07.727Z,1.86
2023-02-21T00:38:07.695Z,1.57
2023-02-21T00:39:07.673Z,1.49
2023-02-21T00:40:07.647Z,1.80
2023-02-21T00:41:07.624Z,1.57
2023-02-21T00:42:07.592Z,1.57
2023-02-21T00:43:07.567Z,1.83
2023-02-21T00:44:07.553Z,1.70
2023-02-21T00:45:07.534Z,1.58
2023-02-21T00:46:07.514Z,1.45
2023-02-21T00:47:07.481Z,1.46
2023-02-21T00:48:07.442Z,1.49
2023-02-21T00:49:07.432Z,1.90
2023-02-21T00:50:07.422Z,1.62
2023-02-21T00:51:07.386Z,1.54
2023-02-21T00:52:07.368Z,1.64
2023-02-21T00:53:07.346Z,1.68
2023-02-21T00:54:07.320Z,1.42
2023-02-21T00:55:07.297Z,1.39
2023-02-21T00:56:07.276Z,1.77
2023-02-21T00:57:07.245Z,1.67
2023-02-21T00:58:07.224Z,1.69
2023-02-21T00:59:07.193Z,1.57
2023-02-21T01:00:07.170Z,1.15
2023-02-21T01:01:07.177Z,2.05
2023-02-21T01:02:07.142Z,1.40
2023-02-21T01:03:07.110Z,1.59
2023-02-21T01:04:07.104Z,1.84
2023-02-21T01:05:07.073Z,1.78
2023-02-21T01:06:07.030Z,1.98
2023-02-21T01:07:07.005Z,1.95
2023-02-21T01:08:06.972Z,1.84
2023-02-21T01:09:06.957Z,1.65
2023-02-21T01:10:06.937Z,1.62
2023-02-21T01:11:06.888Z,1.52
2023-02-21T01:12:06.842Z,1.19
2023-02-21T01:13:06.814Z,1.41
2023-02-21T01:14:06.783Z,1.32
2023-02-21T01:15:06.761Z,1.78
2023-02-21T01:16:06.774Z,1.43
2023-02-21T01:17:12.832Z,1.76
2023-02-21T01:18:07.632Z,1.69
2023-02-21T01:19:06.547Z,1.46
2023-02-21T01:20:06.474Z,1.91
2023-02-21T01:21:06.389Z,1.12
2023-02-21T01:22:06.322Z,1.75
2023-02-21T01:23:06.240Z,1.60
2023-02-21T05:56:57.746Z,0.73
2023-02-21T06:10:57.299Z,1.45
2023-02-21T06:11:57.232Z,1.26
2023-02-21T06:12:57.182Z,1.43
2023-02-21T06:13:57.163Z,1.34
2023-02-21T06:14:57.132Z,1.46
2023-02-21T06:15:57.126Z,1.12
2023-02-21T06:16:57.037Z,1.29
2023-02-21T06:17:56.997Z,1.13
2023-02-21T06:18:56.995Z,1.37
2023-02-21T06:19:56.990Z,1.28
2023-02-21T06:20:56.976Z,1.37
2023-02-21T06:21:56.962Z,1.21
2023-02-21T06:22:56.938Z,1.68
2023-02-21T06:23:56.891Z,1.47
2023-02-21T06:24:56.878Z,1.27
2023-02-21T06:25:56.829Z,1.57
2023-02-21T06:26:56.781Z,1.35
2023-02-21T06:27:56.724Z,1.28
2023-02-21T06:28:56.693Z,1.31
2023-02-21T06:29:56.688Z,0.88
2023-02-21T06:30:56.716Z,1.59
2023-02-21T06:31:56.688Z,1.56
2023-02-21T06:32:56.618Z,1.56
2023-02-21T06:33:56.586Z,1.43
2023-02-21T06:34:56.557Z,1.65
2023-02-21T06:35:56.527Z,1.74
2023-02-21T06:36:56.503Z,1.94
2023-02-21T06:37:56.434Z,1.84
2023-02-21T06:38:56.370Z,1.80
2023-02-21T06:39:56.321Z,1.71
2023-02-21T06:40:56.243Z,2.16
2023-02-21T06:41:56.165Z,1.86
2023-02-21T06:42:56.105Z,1.91
2023-02-21T06:43:56.020Z,1.70
2023-02-21T06:44:55.935Z,2.03
2023-02-21T06:45:55.875Z,1.80
2023-02-21T06:46:55.835Z,1.88
2023-02-21T06:47:55.680Z,1.83
2023-02-21T06:48:55.586Z,2.33
2023-02-21T06:49:55.552Z,2.07
2023-02-21T06:50:55.492Z,1.56
2023-02-21T06:51:55.407Z,2.39
2023-02-21T06:52:55.364Z,2.09
2023-02-21T06:53:55.294Z,2.16
2023-02-21T06:54:55.257Z,2.18
2023-02-21T06:55:55.279Z,2.34
2023-02-21T06:56:55.153Z,3.24
2023-02-21T06:57:55.079Z,3.47
2023-02-21T06:58:55.033Z,2.93
2023-02-21T06:59:54.994Z,3.00
2023-02-21T07:00:55.678Z,2.39
2023-02-21T07:01:54.955Z,2.18
2023-02-21T07:02:54.844Z,2.47
2023-02-21T07:03:54.777Z,2.84
2023-02-21T07:04:54.804Z,2.57
2023-02-21T07:05:54.656Z,3.12
2023-02-21T07:06:54.573Z,2.36
2023-02-21T07:07:54.496Z,2.77
2023-02-21T07:08:54.421Z,2.65
2023-02-21T07:09:54.332Z,2.66
2023-02-21T07:10:55.232Z,3.72
2023-02-21T07:11:54.152Z,2.68
2023-02-21T07:19:53.659Z,3.24
2023-02-21T07:20:53.626Z,2.93
2023-02-21T07:21:53.596Z,2.31
2023-02-21T07:22:53.543Z,4.06
2023-02-21T07:23:53.509Z,2.67
2023-02-21T07:24:53.462Z,3.11
2023-02-21T07:25:53.426Z,3.21
2023-02-21T07:26:53.403Z,3.29
2023-02-21T07:27:53.333Z,4.55
2023-02-21T07:28:53.365Z,5.02
2023-02-21T07:29:53.918Z,4.66
2023-02-21T07:30:53.213Z,3.62
2023-02-21T07:31:53.203Z,3.87
2023-02-21T07:34:03.830Z,4.06
2023-02-21T07:35:03.216Z,3.25
2023-02-21T07:36:03.255Z,4.24
2023-02-21T07:37:03.289Z,3.11
2023-02-21T07:38:03.313Z,3.68
2023-02-21T07:39:03.332Z,3.23
2023-02-21T07:40:03.349Z,3.36
2023-02-21T07:41:03.380Z,3.39
2023-02-21T07:42:03.411Z,3.36
2023-02-21T07:43:03.416Z,2.97
2023-02-21T07:44:03.444Z,4.03
2023-02-21T07:45:03.455Z,2.59
2023-02-21T07:46:03.501Z,3.54
2023-02-21T07:47:03.508Z,3.22
2023-02-21T07:48:03.534Z,3.13
2023-02-21T07:49:03.528Z,3.52
2023-02-21T07:50:03.558Z,3.12
2023-02-21T07:51:03.572Z,2.82
2023-02-21T07:52:03.599Z,3.79
2023-02-21T07:53:03.599Z,3.47
2023-02-21T07:54:03.628Z,2.49
2023-02-21T07:55:03.649Z,2.73
2023-02-21T07:56:03.666Z,2.54
2023-02-21T07:57:03.895Z,3.05
2023-02-21T07:58:03.709Z,2.61
2023-02-21T07:59:03.734Z,3.16
2023-02-21T08:00:03.759Z,2.84
2023-02-21T08:01:03.794Z,3.00
2023-02-21T08:02:03.923Z,3.28
2023-02-21T08:03:03.810Z,3.27
2023-02-21T08:04:04.637Z,3.37
2023-02-21T08:05:03.858Z,3.22
2023-02-21T08:06:03.839Z,3.27
2023-02-21T08:07:03.860Z,2.96
2023-02-21T08:08:03.878Z,3.44
2023-02-21T08:09:03.882Z,3.37
2023-02-21T08:10:03.889Z,2.96
2023-02-21T08:11:03.911Z,3.92
2023-02-21T08:12:03.938Z,3.63
2023-02-21T08:13:03.929Z,4.33
2023-02-21T08:14:03.940Z,3.68
2023-02-21T08:15:03.946Z,3.86
2023-02-21T08:16:03.971Z,3.11
2023-02-21T08:17:04.003Z,4.31
2023-02-21T08:18:04.003Z,3.47
2023-02-21T08:19:04.008Z,3.45
2023-02-21T08:20:04.018Z,3.85
2023-02-21T08:21:04.026Z,4.27
2023-02-21T08:22:04.035Z,3.94
2023-02-21T08:23:04.063Z,4.04
2023-02-21T08:24:04.053Z,3.79
2023-02-21T08:25:04.155Z,2.82
2023-02-21T08:26:04.859Z,3.34
2023-02-21T08:27:04.106Z,4.07
2023-02-21T08:28:04.127Z,3.96
2023-02-21T08:29:04.128Z,3.85
2023-02-21T08:30:04.201Z,3.89
2023-02-21T08:31:04.205Z,3.38
2023-02-21T08:32:04.191Z,3.49
2023-02-21T08:33:04.194Z,3.32
2023-02-21T08:34:04.203Z,4.21
2023-02-21T08:35:04.220Z,4.02
2023-02-21T08:36:04.229Z,3.15
2023-02-21T08:37:04.251Z,3.44
2023-02-21T08:38:04.251Z,3.27
2023-02-21T08:39:04.275Z,3.13
2023-02-21T08:40:04.279Z,3.37
2023-02-21T08:41:04.306Z,3.77
2023-02-21T08:42:04.315Z,3.02
2023-02-21T08:43:04.346Z,2.81
2023-02-21T08:44:04.459Z,3.63
2023-02-21T08:45:04.616Z,3.70
2023-02-21T08:46:04.602Z,3.51
2023-02-21T08:47:04.639Z,3.28
2023-02-21T08:48:04.658Z,3.52
2023-02-21T08:49:04.723Z,3.10
2023-02-21T08:50:04.731Z,3.63
2023-02-21T08:51:04.810Z,2.87
2023-02-21T08:52:04.853Z,2.90
2023-02-21T08:53:04.860Z,3.17
2023-02-21T08:54:04.883Z,3.09
2023-02-21T08:55:04.948Z,3.20
2023-02-21T08:56:04.928Z,3.20
2023-02-21T08:57:05.867Z,3.27
2023-02-21T08:58:05.062Z,3.40
2023-02-21T08:59:05.123Z,3.24
2023-02-21T09:00:05.199Z,2.78
2023-02-21T09:01:05.221Z,2.64
2023-02-21T09:02:05.221Z,2.77
2023-02-21T09:03:05.253Z,2.67
2023-02-21T09:04:05.331Z,3.99
2023-02-21T09:05:05.359Z,3.11
2023-02-21T09:06:05.392Z,3.46
2023-02-21T09:07:05.466Z,3.25
2023-02-21T09:08:05.474Z,3.10
2023-02-21T09:09:05.517Z,3.41
2023-02-21T09:10:05.558Z,3.62
2023-02-21T09:11:05.636Z,2.98
2023-02-21T09:12:05.688Z,2.81
2023-02-21T09:13:05.714Z,3.17
2023-02-21T09:14:05.787Z,3.19
2023-02-21T09:15:05.879Z,3.63
2023-02-21T09:16:06.003Z,3.11
2023-02-21T09:17:06.090Z,2.61
2023-02-21T09:18:06.164Z,2.47
2023-02-21T09:19:06.256Z,3.07
2023-02-21T09:20:06.639Z,3.68
2023-02-21T09:21:06.414Z,2.66
2023-02-21T09:22:06.514Z,4.05
2023-02-21T09:23:06.587Z,3.40
2023-02-21T09:24:06.687Z,3.53
2023-02-21T09:25:06.772Z,4.06
2023-02-21T09:26:06.838Z,4.09
2023-02-21T09:27:06.910Z,4.16
2023-02-21T09:28:06.988Z,4.22
2023-02-21T09:29:07.045Z,4.11
2023-02-21T09:30:07.138Z,4.12
2023-02-21T09:31:07.156Z,4.14
2023-02-21T09:32:07.245Z,4.75
2023-02-21T09:33:07.253Z,4.10
2023-02-21T09:34:07.306Z,3.71
2023-02-21T09:35:07.362Z,4.69
2023-02-21T09:36:07.413Z,4.35
2023-02-21T09:37:07.462Z,4.53
2023-02-21T09:38:07.512Z,4.18
2023-02-21T11:31:11.811Z,4.77
2023-02-21T11:32:11.885Z,4.44
2023-02-21T11:33:11.845Z,5.63
2023-02-21T11:34:11.875Z,6.21
2023-02-21T11:35:11.902Z,5.93
2023-02-21T11:36:11.935Z,5.56
2023-02-21T11:37:11.970Z,5.13
2023-02-21T11:38:11.999Z,4.54
2023-02-21T11:39:12.023Z,5.28
2023-02-21T11:40:12.060Z,5.61
2023-02-21T11:41:12.131Z,5.45
2023-02-21T11:42:12.109Z,4.13
2023-02-21T11:43:12.239Z,6.00
2023-02-21T11:44:12.253Z,5.54
2023-02-21T11:45:12.273Z,5.57
2023-02-21T11:46:12.346Z,5.10
2023-02-21T11:47:12.334Z,5.11
2023-02-21T11:48:12.356Z,4.40
2023-02-21T11:49:12.405Z,4.93
2023-02-21T11:50:12.426Z,4.17
2023-02-21T11:51:12.535Z,4.75
2023-02-21T11:52:12.497Z,4.54
2023-02-21T11:53:12.539Z,5.33
2023-02-21T11:54:12.583Z,5.74
2023-02-21T11:55:12.609Z,4.41
2023-02-21T11:56:12.637Z,5.60
2023-02-21T11:57:12.671Z,4.91
2023-02-21T11:58:12.722Z,4.30
2023-02-21T11:59:12.756Z,4.33
2023-02-21T12:00:12.805Z,4.22
2023-02-21T12:01:13.144Z,4.25
2023-02-21T12:02:12.909Z,4.40
2023-02-21T12:03:12.913Z,4.42
2023-02-21T12:04:12.933Z,4.66
2023-02-21T12:05:12.966Z,3.94
2023-02-21T12:06:13.063Z,3.79
2023-02-21T12:07:13.049Z,3.60
2023-02-21T12:08:13.088Z,4.91
2023-02-21T12:09:13.121Z,4.06
2023-02-21T12:10:13.147Z,4.86
2023-02-21T12:11:13.464Z,8.14
2023-02-21T12:12:13.214Z,4.80
2023-02-21T12:13:13.257Z,5.44
2023-02-21T12:14:13.301Z,3.92
2023-02-21T12:15:13.358Z,4.65
2023-02-21T12:16:13.439Z,4.90
2023-02-21T12:17:15.163Z,4.65
2023-02-21T12:18:13.481Z,4.56
2023-02-21T12:19:13.528Z,4.85
2023-02-21T12:20:13.633Z,4.61
2023-02-21T12:21:14.196Z,4.18
2023-02-21T12:22:13.669Z,4.09
2023-02-21T12:23:13.722Z,4.24
2023-02-21T12:24:14.382Z,4.46
2023-02-21T12:25:13.806Z,5.02
2023-02-21T12:26:13.873Z,4.04
2023-02-21T12:27:13.906Z,4.00
2023-02-21T12:28:14.128Z,4.43
2023-02-21T12:29:14.007Z,3.70
2023-02-21T12:30:14.068Z,4.14
2023-02-21T12:31:14.564Z,4.19
2023-02-21T12:32:14.218Z,3.35
2023-02-21T12:33:14.222Z,3.70
2023-02-21T12:34:14.272Z,4.10
2023-02-21T12:35:14.325Z,3.80
2023-02-21T12:36:14.369Z,4.49
2023-02-21T12:37:14.418Z,3.70
2023-02-21T12:38:14.492Z,4.17
2023-02-21T12:39:14.542Z,4.84
2023-02-21T12:40:14.585Z,3.88
2023-02-21T12:41:14.884Z,4.34
2023-02-21T14:38:21.823Z,2.29
2023-02-21T14:39:21.788Z,3.47
2023-02-21T14:40:21.866Z,3.32
2023-02-21T14:41:22.469Z,2.39
2023-02-21T14:42:21.997Z,3.56
2023-02-21T14:43:22.068Z,3.14
2023-02-21T14:44:22.140Z,2.63
2023-02-21T14:49:22.438Z,2.61
2023-02-21T14:50:22.506Z,2.61
2023-02-21T14:51:22.572Z,2.63
2023-02-21T14:52:22.632Z,2.64
2023-02-21T14:53:22.703Z,2.78
2023-02-21T14:54:22.759Z,3.02
2023-02-21T14:55:24.375Z,2.75
2023-02-21T14:56:22.896Z,2.73
2023-02-21T14:57:22.962Z,3.42
2023-02-21T14:58:23.026Z,3.29
2023-02-21T14:59:23.086Z,3.08
2023-02-21T15:00:23.154Z,2.64
2023-02-21T15:01:23.244Z,2.85
2023-02-21T15:02:23.289Z,3.43
2023-02-21T15:03:23.347Z,2.72
2023-02-21T15:04:23.461Z,2.73
2023-02-21T15:05:23.499Z,2.74
2023-02-21T15:06:23.548Z,2.98
2023-02-21T15:07:23.607Z,2.62
2023-02-21T15:08:23.668Z,2.68
2023-02-21T15:09:23.728Z,2.97
2023-02-21T15:10:23.795Z,2.35
2023-02-21T15:11:25.982Z,2.64
2023-02-21T15:12:23.913Z,2.24
2023-02-21T15:13:23.963Z,2.89
2023-02-21T15:14:24.024Z,2.63
2023-02-21T15:15:24.086Z,2.69
2023-02-21T15:16:24.169Z,3.61
2023-02-21T15:17:24.234Z,2.45
2023-02-21T15:18:24.272Z,2.94
2023-02-21T15:19:24.335Z,2.47
2023-02-21T15:20:24.407Z,2.50
2023-02-21T15:21:24.460Z,3.42
2023-02-21T15:22:25.308Z,2.64
2023-02-21T15:23:24.589Z,2.61
2023-02-21T15:24:24.645Z,2.60
2023-02-21T15:25:24.712Z,3.27
2023-02-21T15:26:24.791Z,3.13
2023-02-21T15:27:24.845Z,2.80
2023-02-21T15:28:24.909Z,2.57
2023-02-21T15:29:24.983Z,2.81
2023-02-21T15:30:25.195Z,2.41
2023-02-21T15:31:25.135Z,3.30
2023-02-21T15:32:25.214Z,2.44
2023-02-21T15:33:25.267Z,2.70
2023-02-21T15:34:25.349Z,3.06
2023-02-21T15:35:25.425Z,2.88
2023-02-21T15:36:25.490Z,2.88
2023-02-21T15:37:25.558Z,2.72
2023-02-21T15:38:25.630Z,2.58
2023-02-21T15:39:25.701Z,3.83
2023-02-21T15:40:25.789Z,2.83
2023-02-21T15:41:25.856Z,2.50
2023-02-21T15:42:25.943Z,2.54
2023-02-21T15:43:26.054Z,2.65
2023-02-21T15:44:26.081Z,3.21
2023-02-21T15:45:26.158Z,2.77
2023-02-21T15:46:26.314Z,2.58
2023-02-21T15:47:26.333Z,2.73
2023-02-21T15:48:26.381Z,2.86
2023-02-21T15:49:26.468Z,3.99
2023-02-21T15:50:26.539Z,2.70
2023-02-21T15:51:26.621Z,2.47
2023-02-21T15:52:26.742Z,2.74
2023-02-21T15:53:26.768Z,2.68
2023-02-21T15:54:26.849Z,2.72
2023-02-21T15:55:26.921Z,2.07
2023-02-21T15:56:27.077Z,2.35
2023-02-21T15:57:27.082Z,2.86
2023-02-21T15:58:27.180Z,2.62
2023-02-21T15:59:27.242Z,2.69
2023-02-21T16:00:27.366Z,2.89
2023-02-21T16:01:27.399Z,2.51
2023-02-21T16:02:27.505Z,3.08
2023-02-21T16:03:27.557Z,2.76
2023-02-21T16:52:31.758Z,2.60
2023-02-21T16:53:31.861Z,2.71
2023-02-21T16:54:31.919Z,2.65
2023-02-21T16:55:32.008Z,2.35
2023-02-21T16:56:32.121Z,2.56
2023-02-21T16:57:32.169Z,3.17
2023-02-21T16:58:32.280Z,3.03
2023-02-21T16:59:32.353Z,2.49
2023-02-21T17:00:32.439Z,2.95
2023-02-21T17:01:32.715Z,2.76
2023-02-21T17:02:32.623Z,2.45
2023-02-21T17:03:32.649Z,2.64
2023-02-21T17:04:32.695Z,2.11
2023-02-21T17:05:32.789Z,2.42
2023-02-21T17:06:32.874Z,2.69
2023-02-21T17:07:32.972Z,2.88
2023-02-21T17:08:33.056Z,2.99
2023-02-21T17:09:33.133Z,2.46
2023-02-21T17:10:33.228Z,3.10
2023-02-21T17:11:33.293Z,2.09
2023-02-21T17:12:33.381Z,2.78
2023-02-21T17:13:33.445Z,2.14
2023-02-21T17:14:33.503Z,2.92
2023-02-21T17:15:33.572Z,2.72
2023-02-21T17:16:33.624Z,2.27
2023-02-21T17:17:33.715Z,2.48
2023-02-21T17:18:33.802Z,2.67
2023-02-21T17:19:33.890Z,2.27
2023-02-21T17:20:33.973Z,2.19
2023-02-21T17:21:34.058Z,2.58
2023-02-21T17:22:34.158Z,2.97
2023-02-21T17:23:34.245Z,2.73
2023-02-21T17:27:34.600Z,2.77
2023-02-21T18:59:39.423Z,2.12
2023-02-21T19:00:39.619Z,2.29
2023-02-21T19:01:39.520Z,2.37
2023-02-21T19:02:39.575Z,2.98
2023-02-21T19:03:39.620Z,2.57
2023-02-21T19:04:39.620Z,2.32
2023-02-21T19:05:39.650Z,2.05
2023-02-21T19:06:39.693Z,2.03
2023-02-21T19:07:39.732Z,2.91
2023-02-21T19:08:39.747Z,1.95
2023-02-21T19:09:39.804Z,2.39
2023-02-21T19:10:39.844Z,2.61
2023-02-21T19:11:39.864Z,2.42
2023-02-21T19:12:39.909Z,2.51
2023-02-21T19:13:39.938Z,2.30
2023-02-21T19:14:39.986Z,1.65
2023-02-21T19:15:40.005Z,2.17
2023-02-21T19:16:40.117Z,2.48
2023-02-21T19:17:40.086Z,2.14
2023-02-21T19:18:40.128Z,2.28
2023-02-21T19:19:40.163Z,2.68
2023-02-21T19:20:40.202Z,2.50
2023-02-21T19:21:40.238Z,2.45
2023-02-21T19:22:40.468Z,2.31
2023-02-21T19:23:40.357Z,2.76
2023-02-21T19:24:40.404Z,2.25
2023-02-21T19:25:40.462Z,2.21
2023-02-21T19:26:40.496Z,2.76
2023-02-21T19:27:40.522Z,2.38
2023-02-21T19:28:40.572Z,2.69
2023-02-21T19:29:40.594Z,2.27
2023-02-21T19:30:40.712Z,2.80
2023-02-21T19:31:40.842Z,1.99
2023-02-21T19:32:40.701Z,2.07
2023-02-21T19:33:40.730Z,2.44
2023-02-21T19:34:40.773Z,1.98
2023-02-21T19:35:40.808Z,2.13
2023-02-21T19:36:40.839Z,2.30
2023-02-21T19:37:40.875Z,2.30
2023-02-21T19:45:41.282Z,2.20
2023-02-21T19:52:41.747Z,2.34
2023-02-21T19:56:41.740Z,2.65
2023-02-21T19:57:41.782Z,2.09
2023-02-21T19:58:42.430Z,2.18
2023-02-21T19:59:41.834Z,1.93
2023-02-21T20:00:41.872Z,2.14
2023-02-21T20:01:41.912Z,2.68
2023-02-21T20:02:41.948Z,2.18
2023-02-21T20:03:42.035Z,2.25
2023-02-21T20:04:42.023Z,2.72
2023-02-21T20:05:42.063Z,2.73
2023-02-21T20:06:42.087Z,2.42
2023-02-21T20:07:42.127Z,1.91
2023-02-21T20:08:42.149Z,2.24
2023-02-21T20:09:42.173Z,3.11
2023-02-21T20:10:42.231Z,2.28
2023-02-21T20:11:42.260Z,2.33
2023-02-21T20:12:42.280Z,2.64
2023-02-21T20:13:42.320Z,2.49
2023-02-21T20:14:42.362Z,2.55
2023-02-21T20:15:42.390Z,2.60
2023-02-21T20:16:42.470Z,2.62
2023-02-21T20:17:42.480Z,2.54
2023-02-21T20:18:42.497Z,2.06
2023-02-21T20:19:42.544Z,2.53
2023-02-21T20:20:42.598Z,2.46
2023-02-21T20:21:42.803Z,2.48
2023-02-21T20:22:42.673Z,1.90
2023-02-21T20:23:42.704Z,2.75
2023-02-21T20:24:42.743Z,2.26
2023-02-21T20:25:42.771Z,1.78
2023-02-21T20:26:42.830Z,1.99
2023-02-21T20:27:42.861Z,1.87
2023-02-21T20:28:42.895Z,2.30
2023-02-21T20:29:42.925Z,2.69
2023-02-21T20:30:43.011Z,2.37
2023-02-21T20:31:43.093Z,3.23
2023-02-21T20:32:43.031Z,2.81
2023-02-21T20:33:43.078Z,2.45
2023-02-21T20:34:43.114Z,2.29
2023-02-21T20:35:43.149Z,3.13
2023-02-21T20:36:43.182Z,2.44
2023-02-21T20:37:43.229Z,2.42
2023-02-21T20:38:43.281Z,2.37
2023-02-21T20:39:43.305Z,2.44
2023-02-21T20:40:43.372Z,2.17
2023-02-21T20:41:43.390Z,1.96
2023-02-21T20:42:43.439Z,2.70
2023-02-21T20:43:43.489Z,2.51
2023-02-21T20:44:43.550Z,2.64
2023-02-21T20:45:43.582Z,2.64
2023-02-21T20:46:43.606Z,1.82
2023-02-21T20:47:43.671Z,2.42
2023-02-21T20:48:43.693Z,2.64
2023-02-21T20:49:43.748Z,2.59
2023-02-21T20:50:43.922Z,2.51
2023-02-21T20:51:43.814Z,2.65
2023-02-21T20:52:43.861Z,2.69
2023-02-21T20:53:43.898Z,2.23
2023-02-21T20:54:43.957Z,2.69
2023-02-21T20:55:43.990Z,2.25
2023-02-21T20:56:44.024Z,2.61
2023-02-21T20:57:44.105Z,2.51
2023-02-21T20:58:44.099Z,2.57
2023-02-21T20:59:44.135Z,2.23
2023-02-21T21:00:44.166Z,1.91
2023-02-21T21:01:44.260Z,2.59
2023-02-21T21:02:44.249Z,2.42
2023-02-21T21:03:44.294Z,2.73
2023-02-21T21:04:44.333Z,2.42
2023-02-21T21:05:44.353Z,2.58
2023-02-21T21:06:44.399Z,2.18
2023-02-21T21:07:44.439Z,2.19
2023-02-21T21:08:44.470Z,2.88
2023-02-21T21:09:44.548Z,2.44
2023-02-21T21:10:44.557Z,2.50
2023-02-21T21:11:44.601Z,2.35
2023-02-21T21:12:44.630Z,2.07
2023-02-21T21:13:44.680Z,2.41
2023-02-21T21:14:44.721Z,2.75
2023-02-21T21:15:44.777Z,2.39
2023-02-21T21:16:44.788Z,2.20
2023-02-21T21:17:44.817Z,2.25
2023-02-21T21:18:44.860Z,2.02
2023-02-21T21:19:44.957Z,2.29
2023-02-21T21:20:44.941Z,2.39
2023-02-21T21:21:44.982Z,2.12
2023-02-21T21:22:45.029Z,2.26
2023-02-21T21:23:45.060Z,2.35
2023-02-21T21:24:45.089Z,2.24
2023-02-21T21:25:45.124Z,2.65
2023-02-21T21:26:45.157Z,2.23
2023-02-21T21:27:45.191Z,2.66
2023-02-21T21:28:45.228Z,2.43
2023-02-21T21:29:45.257Z,2.72
2023-02-21T21:30:45.431Z,2.24
2023-02-21T21:31:45.353Z,2.14
2023-02-21T21:32:45.395Z,1.84
2023-02-21T21:33:45.435Z,2.61
2023-02-21T21:34:45.464Z,2.57
2023-02-21T21:35:45.508Z,2.73
2023-02-21T21:36:45.564Z,2.37
2023-02-21T21:37:45.579Z,2.47
2023-02-21T21:38:45.627Z,2.30
2023-02-21T21:39:45.678Z,2.34
2023-02-21T21:40:45.713Z,2.10
2023-02-21T21:41:45.753Z,2.28
2023-02-21T21:42:45.785Z,1.85
2023-02-21T21:43:45.821Z,2.62
2023-02-21T21:44:45.861Z,2.85
2023-02-21T21:45:45.897Z,2.39
2023-02-21T21:46:45.938Z,2.61
2023-02-21T21:47:45.977Z,2.61
